createdAt,value
2023-05-18T00:02:05.677Z,100127.66
2023-05-18T00:04:37.710Z,100131.50
2023-05-18T00:07:08.614Z,100132.53
2023-05-18T00:09:39.812Z,100133.44
2023-05-18T00:12:13.328Z,100128.53
2023-05-18T00:14:43.939Z,100124.22
2023-05-18T00:17:16.298Z,100124.00
2023-05-18T00:19:48.344Z,100135.66
2023-05-18T00:22:37.135Z,100126.47
2023-05-18T00:25:07.939Z,100134.34
2023-05-18T00:27:38.337Z,100136.31
2023-05-18T00:30:09.529Z,100136.75
2023-05-18T00:32:40.035Z,100134.06
2023-05-18T00:35:10.856Z,100137.94
2023-05-18T00:37:41.305Z,100138.38
2023-05-18T00:40:12.634Z,100130.94
2023-05-18T00:42:43.114Z,100135.44
2023-05-18T00:45:13.805Z,100126.16
2023-05-18T00:47:44.502Z,100126.94
2023-05-18T00:50:14.972Z,100120.16
2023-05-18T00:52:47.168Z,100121.63
2023-05-18T00:55:17.589Z,100121.47
2023-05-18T00:57:49.752Z,100117.50
2023-05-18T01:00:19.916Z,100109.00
2023-05-18T01:02:52.698Z,100110.03
2023-05-18T01:05:23.670Z,100106.66
2023-05-18T01:07:54.226Z,100098.56
2023-05-18T01:10:24.780Z,100099.03
2023-05-18T01:13:04.886Z,100102.31
2023-05-18T01:15:39.187Z,100099.34
2023-05-18T01:18:27.690Z,100097.81
2023-05-18T01:21:12.612Z,100093.59
2023-05-18T01:24:01.399Z,100099.34
2023-05-18T01:26:34.806Z,100092.38
2023-05-18T01:29:10.472Z,100091.72
2023-05-18T01:31:41.519Z,100077.31
2023-05-18T01:34:12.722Z,100068.53
2023-05-18T01:36:43.856Z,100070.44
2023-05-18T01:39:14.556Z,100072.94
2023-05-18T01:41:56.216Z,100077.31
2023-05-18T01:44:34.442Z,100069.31
2023-05-18T01:47:18.281Z,100078.78
2023-05-18T01:49:55.555Z,100079.22
2023-05-18T01:52:56.189Z,100084.72
2023-05-18T01:55:29.373Z,100077.91
2023-05-18T01:58:02.591Z,100078.72
2023-05-18T02:00:34.094Z,100083.28
2023-05-18T02:03:04.770Z,100080.09
2023-05-18T02:05:35.760Z,100085.63
2023-05-18T02:08:06.815Z,100083.66
2023-05-18T02:10:37.318Z,100085.16
2023-05-18T02:13:10.333Z,100083.41
2023-05-18T02:15:40.783Z,100066.16
2023-05-18T02:18:11.563Z,100068.94
2023-05-18T02:20:42.112Z,100075.63
2023-05-18T02:23:12.619Z,100072.81
2023-05-18T02:25:46.042Z,100069.78
2023-05-18T02:28:16.492Z,100077.78
2023-05-18T02:30:48.005Z,100070.84
2023-05-18T02:33:19.340Z,100068.66
2023-05-18T02:35:49.777Z,100061.44
2023-05-18T02:38:21.139Z,100070.53
2023-05-18T02:40:51.542Z,100059.69
2023-05-18T02:43:22.021Z,100066.63
2023-05-18T02:45:52.926Z,100059.19
2023-05-18T02:48:23.913Z,100056.84
2023-05-18T02:50:54.807Z,100063.47
2023-05-18T02:53:25.944Z,100058.28
2023-05-18T02:56:04.811Z,100058.69
2023-05-18T02:58:59.133Z,100065.66
2023-05-18T03:01:39.207Z,100061.06
2023-05-18T03:04:10.111Z,100052.34
2023-05-18T03:06:48.205Z,100048.50
2023-05-18T03:09:19.579Z,100043.13
2023-05-18T03:11:50.421Z,100048.81
2023-05-18T03:14:20.898Z,100041.59
2023-05-18T03:16:55.778Z,100033.34
2023-05-18T03:19:28.606Z,100029.56
2023-05-18T03:21:59.464Z,100015.13
2023-05-18T03:24:31.773Z,100007.22
2023-05-18T03:27:03.913Z,100006.47
2023-05-18T03:29:34.402Z,100006.19
2023-05-18T03:32:06.861Z,99994.19
2023-05-18T03:34:38.688Z,99988.09
2023-05-18T03:37:09.045Z,99990.91
2023-05-18T03:39:39.476Z,99987.06
2023-05-18T03:42:09.953Z,99981.28
2023-05-18T03:44:40.764Z,99979.31
2023-05-18T03:47:13.215Z,99969.50
2023-05-18T03:49:43.660Z,99982.88
2023-05-18T03:52:16.809Z,99979.06
2023-05-18T03:54:48.288Z,99974.59
2023-05-18T03:57:20.075Z,99966.34
2023-05-18T03:59:50.737Z,99958.69
2023-05-18T04:02:21.596Z,99960.13
2023-05-18T04:04:55.448Z,99951.25
2023-05-18T04:07:26.138Z,99958.28
2023-05-18T04:09:58.871Z,99947.94
2023-05-18T04:12:29.298Z,99950.19
2023-05-18T04:14:59.776Z,99939.94
2023-05-18T04:17:30.249Z,99926.41
2023-05-18T04:20:01.525Z,99940.97
2023-05-18T04:22:32.701Z,99951.41
2023-05-18T04:25:04.185Z,99953.22
2023-05-18T04:27:34.871Z,99949.81
2023-05-18T04:30:05.775Z,99947.75
2023-05-18T04:32:38.112Z,99955.53
2023-05-18T04:35:09.842Z,99945.78
2023-05-18T04:37:44.439Z,99927.06
2023-05-18T04:40:18.736Z,99917.53
2023-05-18T04:42:51.205Z,99906.75
2023-05-18T04:45:40.141Z,99899.44
2023-05-18T04:48:11.011Z,99900.88
2023-05-18T04:50:42.147Z,99903.63
2023-05-18T04:53:13.852Z,99900.16
2023-05-18T04:55:44.885Z,99894.91
2023-05-18T04:58:15.418Z,99900.97
2023-05-18T05:00:46.205Z,99917.44
2023-05-18T05:03:16.693Z,99914.94
2023-05-18T05:05:47.235Z,99915.41
2023-05-18T05:08:18.256Z,99917.47
2023-05-18T05:10:48.876Z,99921.06
2023-05-18T05:13:19.171Z,99921.69
2023-05-18T05:15:50.266Z,99921.75
2023-05-18T05:18:21.326Z,99926.41
2023-05-18T05:20:53.028Z,99925.81
2023-05-18T05:23:24.412Z,99918.88
2023-05-18T05:25:56.255Z,99916.16
2023-05-18T05:28:26.660Z,99923.00
2023-05-18T05:30:57.309Z,99918.53
2023-05-18T05:33:27.765Z,99933.13
2023-05-18T05:36:17.780Z,99913.38
2023-05-18T05:38:48.734Z,99893.56
2023-05-18T05:41:19.235Z,99888.44
2023-05-18T05:43:49.764Z,99887.25
2023-05-18T05:46:20.511Z,99877.53
2023-05-18T05:48:50.896Z,99876.81
2023-05-18T05:51:21.338Z,99880.31
2023-05-18T05:53:52.570Z,99868.66
2023-05-18T05:56:24.535Z,99876.38
2023-05-18T05:58:55.679Z,99861.16
2023-05-18T06:01:26.737Z,99880.22
2023-05-18T06:03:57.597Z,99864.31
2023-05-18T06:06:28.147Z,99856.16
2023-05-18T06:08:58.680Z,99865.13
2023-05-18T06:11:29.178Z,99861.06
2023-05-18T06:14:00.199Z,99862.06
2023-05-18T06:16:30.708Z,99879.66
2023-05-18T06:19:02.821Z,99873.78
2023-05-18T06:21:33.460Z,99867.09
2023-05-18T06:24:06.636Z,99855.38
2023-05-18T06:27:07.174Z,99861.06
2023-05-18T06:29:45.344Z,99853.09
2023-05-18T06:32:33.938Z,99845.41
2023-05-18T06:35:05.493Z,99851.75
2023-05-18T06:37:36.169Z,99848.31
2023-05-18T06:40:07.286Z,99829.50
2023-05-18T06:42:38.093Z,99825.91
2023-05-18T06:45:43.713Z,99812.94
2023-05-18T06:48:20.506Z,99824.59
2023-05-18T06:50:52.072Z,99818.81
2023-05-18T06:53:24.106Z,99821.81
2023-05-18T06:55:54.573Z,99821.09
2023-05-18T06:58:25.419Z,99818.63
2023-05-18T07:00:56.222Z,99820.06
2023-05-18T07:03:26.883Z,99824.81
2023-05-18T07:05:57.518Z,99816.16
2023-05-18T07:08:27.945Z,99819.66
2023-05-18T07:10:59.623Z,99815.31
2023-05-18T07:13:30.006Z,99820.09
2023-05-18T07:16:00.668Z,99822.59
2023-05-18T07:18:31.199Z,99817.63
2023-05-18T07:21:01.605Z,99812.72
2023-05-18T07:23:32.012Z,99816.78
2023-05-18T07:26:05.391Z,99813.28
2023-05-18T07:28:35.820Z,99809.78
2023-05-18T07:31:06.858Z,99808.72
2023-05-18T07:33:39.156Z,99816.06
2023-05-18T07:36:11.537Z,99810.13
2023-05-18T07:38:41.954Z,99812.97
2023-05-18T07:41:12.811Z,99811.91
2023-05-18T07:43:43.201Z,99809.47
2023-05-18T07:46:13.658Z,99804.53
2023-05-18T07:48:44.118Z,99807.69
2023-05-18T07:51:14.945Z,99802.44
2023-05-18T07:53:47.480Z,99804.88
2023-05-18T07:56:18.363Z,99797.25
2023-05-18T07:58:48.801Z,99787.69
2023-05-18T08:01:19.274Z,99788.38
2023-05-18T08:03:49.977Z,99787.44
2023-05-18T08:06:20.442Z,99795.16
2023-05-18T08:08:50.936Z,99791.13
2023-05-18T08:11:21.428Z,99795.28
2023-05-18T08:13:52.196Z,99793.44
2023-05-18T08:16:22.731Z,99791.31
2023-05-18T08:18:53.340Z,99790.41
2023-05-18T08:21:23.902Z,99797.25
2023-05-18T08:23:54.393Z,99800.19
2023-05-18T08:26:26.043Z,99794.31
2023-05-18T08:28:56.993Z,99800.59
2023-05-18T08:31:27.636Z,99801.19
2023-05-18T08:33:58.052Z,99792.91
2023-05-18T08:36:28.564Z,99794.03
2023-05-18T08:38:59.276Z,99796.19
2023-05-18T08:41:34.229Z,99789.38
2023-05-18T08:44:13.907Z,99793.19
2023-05-18T08:46:49.801Z,99797.44
2023-05-18T08:49:23.354Z,99788.72
2023-05-18T08:52:05.304Z,99791.03
2023-05-18T08:54:38.308Z,99786.00
2023-05-18T08:57:11.474Z,99792.88
2023-05-18T08:59:46.516Z,99792.66
2023-05-18T09:02:17.239Z,99796.53
2023-05-18T09:04:49.816Z,99802.81
2023-05-18T09:07:22.574Z,99795.53
2023-05-18T09:09:54.150Z,99793.34
2023-05-18T09:12:25.292Z,99788.31
2023-05-18T09:14:56.618Z,99798.53
2023-05-18T09:17:27.144Z,99799.38
2023-05-18T09:19:57.685Z,99800.19
2023-05-18T09:22:28.646Z,99803.72
2023-05-18T09:24:59.532Z,99804.97
2023-05-18T09:27:50.063Z,99794.63
2023-05-18T09:30:19.975Z,99798.38
2023-05-18T09:32:50.589Z,99802.16
2023-05-18T09:35:21.355Z,99801.13
2023-05-18T09:37:53.148Z,99794.41
2023-05-18T09:40:31.472Z,99795.53
2023-05-18T09:43:08.695Z,99800.59
2023-05-18T09:45:51.737Z,99797.31
2023-05-18T09:48:25.237Z,99799.19
2023-05-18T09:50:55.821Z,99800.75
2023-05-18T09:53:26.290Z,99800.03
2023-05-18T09:55:56.767Z,99799.13
2023-05-18T09:58:27.371Z,99801.13
2023-05-18T10:01:03.688Z,99807.28
2023-05-18T10:03:39.197Z,99808.13
2023-05-18T10:06:12.550Z,99818.00
2023-05-18T10:08:43.601Z,99810.50
2023-05-18T10:11:14.585Z,99824.19
2023-05-18T10:13:48.354Z,99806.84
2023-05-18T10:16:19.188Z,99807.91
2023-05-18T10:18:50.944Z,99816.69
2023-05-18T10:21:23.793Z,99825.38
2023-05-18T10:23:55.487Z,99837.13
2023-05-18T10:26:28.663Z,99831.84
2023-05-18T10:29:01.218Z,99828.44
2023-05-18T10:31:33.550Z,99829.63
2023-05-18T10:34:05.637Z,99829.38
2023-05-18T10:36:37.579Z,99822.72
2023-05-18T10:39:09.436Z,99828.91
2023-05-18T10:41:41.957Z,99834.13
2023-05-18T10:44:13.127Z,99837.19
2023-05-18T10:46:44.034Z,99841.25
2023-05-18T10:49:18.554Z,99837.34
2023-05-18T10:51:51.976Z,99837.78
2023-05-18T10:54:23.964Z,99832.19
2023-05-18T10:56:55.520Z,99829.81
2023-05-18T10:59:26.340Z,99840.63
2023-05-18T11:01:57.901Z,99843.19
2023-05-18T11:04:28.916Z,99851.75
2023-05-18T11:07:03.906Z,99852.03
2023-05-18T11:09:35.513Z,99850.34
2023-05-18T11:12:13.186Z,99849.25
2023-05-18T11:14:54.906Z,99851.50
2023-05-18T11:17:31.666Z,99858.16
2023-05-18T11:20:10.888Z,99859.75
2023-05-18T11:23:11.493Z,99862.72
2023-05-18T11:25:44.459Z,99866.94
2023-05-18T11:28:16.095Z,99865.19
2023-05-18T11:30:48.092Z,99864.53
2023-05-18T11:33:29.808Z,99866.22
2023-05-18T11:36:09.336Z,99867.56
2023-05-18T11:38:56.245Z,99865.81
2023-05-18T11:41:34.242Z,99858.09
2023-05-18T11:44:22.885Z,99869.84
2023-05-18T11:47:05.145Z,99871.16
2023-05-18T11:49:48.838Z,99883.69
2023-05-18T11:52:26.740Z,99884.56
2023-05-18T11:54:58.974Z,99886.19
2023-05-18T11:57:55.898Z,99900.34
2023-05-18T12:00:26.956Z,99898.91
2023-05-18T12:02:59.263Z,99899.13
2023-05-18T12:05:33.324Z,99902.44
2023-05-18T12:08:04.219Z,99907.75
2023-05-18T12:10:38.299Z,99914.94
2023-05-18T12:13:09.960Z,99901.63
2023-05-18T12:15:40.973Z,99909.69
2023-05-18T12:18:12.563Z,99915.22
2023-05-18T12:20:43.220Z,99922.25
2023-05-18T12:23:13.641Z,99924.31
2023-05-18T12:25:44.101Z,99923.00
2023-05-18T12:28:18.181Z,99926.00
2023-05-18T12:30:48.761Z,99923.09
2023-05-18T12:33:19.275Z,99936.78
2023-05-18T12:35:49.773Z,99944.50
2023-05-18T12:38:20.381Z,99929.53
2023-05-18T12:40:51.921Z,99929.44
2023-05-18T12:43:22.674Z,99938.16
2023-05-18T12:45:53.279Z,99936.97
2023-05-18T12:48:28.031Z,99939.09
2023-05-18T12:51:01.291Z,99938.41
2023-05-18T12:53:45.443Z,99939.81
2023-05-18T12:56:16.059Z,99937.94
2023-05-18T12:59:07.442Z,99937.22
2023-05-18T13:01:45.539Z,99929.66
2023-05-18T13:04:16.418Z,99925.09
2023-05-18T13:06:47.197Z,99930.66
2023-05-18T13:09:18.917Z,99931.75
2023-05-18T13:12:03.549Z,99934.81
2023-05-18T13:14:41.092Z,99932.22
2023-05-18T13:17:11.550Z,99930.53
2023-05-18T13:19:42.024Z,99934.84
2023-05-18T13:22:12.471Z,99932.75
2023-05-18T13:24:44.351Z,99931.09
2023-05-18T13:27:14.609Z,99922.78
2023-05-18T13:29:45.072Z,99930.72
2023-05-18T13:32:15.625Z,99924.94
2023-05-18T13:34:46.013Z,99921.50
2023-05-18T13:37:16.815Z,99921.91
2023-05-18T13:39:47.364Z,99921.16
2023-05-18T13:42:17.839Z,99917.47
2023-05-18T13:44:48.276Z,99916.06
2023-05-18T13:47:18.768Z,99919.84
2023-05-18T13:49:49.215Z,99908.31
2023-05-18T13:52:19.671Z,99907.72
2023-05-18T13:54:50.415Z,99902.63
2023-05-18T13:57:20.815Z,99905.13
2023-05-18T13:59:51.473Z,99908.84
2023-05-18T14:02:22.303Z,99904.53
2023-05-18T14:04:53.164Z,99896.66
2023-05-18T14:07:25.744Z,99904.41
2023-05-18T14:09:56.106Z,99904.31
2023-05-18T14:12:26.712Z,99900.66
2023-05-18T14:14:57.286Z,99895.81
2023-05-18T14:17:29.167Z,99893.91
2023-05-18T14:20:00.263Z,99883.41
2023-05-18T14:22:32.120Z,99881.03
2023-05-18T14:25:02.740Z,99876.06
2023-05-18T14:27:33.573Z,99871.09
2023-05-18T14:30:04.094Z,99863.13
2023-05-18T14:32:34.659Z,99868.84
2023-05-18T14:35:05.456Z,99862.88
2023-05-18T14:37:35.974Z,99848.50
2023-05-18T14:40:07.379Z,99850.25
2023-05-18T14:42:38.631Z,99861.97
2023-05-18T14:45:09.680Z,99857.66
2023-05-18T14:47:40.230Z,99862.66
2023-05-18T14:50:10.927Z,99854.31
2023-05-18T14:52:41.528Z,99858.91
2023-05-18T14:55:12.240Z,99865.03
2023-05-18T14:57:42.691Z,99867.84
2023-05-18T15:00:14.102Z,99873.13
2023-05-18T15:02:44.822Z,99863.69
2023-05-18T15:05:15.420Z,99865.47
2023-05-18T15:07:45.930Z,99858.78
2023-05-18T15:10:16.440Z,99846.28
2023-05-18T15:12:46.927Z,99834.66
2023-05-18T15:15:18.415Z,99839.16
2023-05-18T15:17:49.173Z,99849.09
2023-05-18T15:20:19.860Z,99851.53
2023-05-18T15:22:51.375Z,99839.28
2023-05-18T15:25:22.515Z,99835.47
2023-05-18T15:27:54.702Z,99828.44
2023-05-18T15:30:24.634Z,99826.94
2023-05-18T15:32:55.092Z,99831.56
2023-05-18T15:35:25.833Z,99820.84
2023-05-18T15:37:56.440Z,99829.16
2023-05-18T15:40:27.050Z,99816.19
2023-05-18T15:42:57.496Z,99817.88
2023-05-18T15:45:28.426Z,99816.06
2023-05-18T15:47:58.892Z,99814.66
2023-05-18T15:50:29.592Z,99819.59
2023-05-18T15:53:00.326Z,99811.44
2023-05-18T15:55:30.853Z,99807.78
2023-05-18T15:58:01.245Z,99814.25
2023-05-18T16:00:32.230Z,99804.53
2023-05-18T16:03:02.964Z,99812.06
2023-05-18T16:05:33.642Z,99810.72
2023-05-18T16:08:04.279Z,99812.28
2023-05-18T16:10:34.732Z,99803.75
2023-05-18T16:13:07.197Z,99792.88
2023-05-18T16:15:37.968Z,99800.09
2023-05-18T16:18:09.095Z,99809.38
2023-05-18T16:20:39.985Z,99799.16
2023-05-18T16:23:10.710Z,99801.34
2023-05-18T16:25:41.141Z,99790.03
2023-05-18T16:28:11.578Z,99797.72
2023-05-18T16:30:42.074Z,99792.13
2023-05-18T16:33:12.703Z,99800.94
2023-05-18T16:35:43.198Z,99788.97
2023-05-18T16:38:14.855Z,99796.19
2023-05-18T16:40:45.517Z,99787.00
2023-05-18T16:43:15.962Z,99799.00
2023-05-18T16:45:46.869Z,99787.56
2023-05-18T16:48:17.352Z,99801.78
2023-05-18T16:50:47.893Z,99789.25
2023-05-18T16:53:18.441Z,99789.50
2023-05-18T16:55:48.973Z,99790.22
2023-05-18T16:58:19.424Z,99801.13
2023-05-18T17:00:49.948Z,99796.31
2023-05-18T17:03:20.295Z,99790.69
2023-05-18T17:05:51.368Z,99802.19
2023-05-18T17:08:21.921Z,99800.13
2023-05-18T17:10:52.653Z,99798.22
2023-05-18T17:13:23.348Z,99791.94
2023-05-18T17:15:53.921Z,99791.47
2023-05-18T17:18:24.790Z,99794.38
2023-05-18T17:20:55.244Z,99782.41
2023-05-18T17:23:25.729Z,99787.38
2023-05-18T17:26:06.068Z,99787.53
2023-05-18T17:28:37.158Z,99779.94
2023-05-18T17:31:08.194Z,99781.16
2023-05-18T17:33:38.649Z,99781.94
2023-05-18T17:36:09.656Z,99774.16
2023-05-18T17:38:39.924Z,99776.72
2023-05-18T17:41:10.323Z,99773.16
2023-05-18T17:43:40.872Z,99770.47
2023-05-18T17:46:11.416Z,99765.31
2023-05-18T17:48:41.943Z,99772.84
2023-05-18T17:51:12.413Z,99752.34
2023-05-18T17:53:44.288Z,99746.63
2023-05-18T17:56:14.860Z,99756.09
2023-05-18T17:58:45.397Z,99756.38
2023-05-18T18:01:15.898Z,99742.53
2023-05-18T18:03:46.459Z,99747.00
2023-05-18T18:06:19.197Z,99732.06
2023-05-18T18:08:50.908Z,99738.34
2023-05-18T18:11:23.114Z,99734.47
2023-05-18T18:13:54.433Z,99733.41
2023-05-18T18:16:25.425Z,99735.06
2023-05-18T18:18:55.944Z,99734.69
2023-05-18T18:21:26.401Z,99743.91
2023-05-18T18:23:56.721Z,99740.09
2023-05-18T18:26:27.504Z,99740.44
2023-05-18T18:28:58.034Z,99745.22
2023-05-18T18:31:28.683Z,99748.59
2023-05-18T18:33:59.205Z,99751.56
2023-05-18T18:36:29.747Z,99747.94
2023-05-18T18:39:00.231Z,99750.28
2023-05-18T18:41:30.684Z,99753.13
2023-05-18T18:44:01.402Z,99748.72
2023-05-18T18:46:31.984Z,99753.16
2023-05-18T18:49:02.646Z,99751.63
2023-05-18T18:51:33.254Z,99750.13
2023-05-18T18:54:03.747Z,99756.94
2023-05-18T18:56:34.261Z,99748.28
2023-05-18T18:59:04.719Z,99750.41
2023-05-18T19:01:35.265Z,99761.03
2023-05-18T19:04:06.093Z,99766.78
2023-05-18T19:06:38.262Z,99761.78
2023-05-18T19:09:09.032Z,99763.19
2023-05-18T19:11:39.521Z,99761.19
2023-05-18T19:14:09.761Z,99767.91
2023-05-18T19:16:40.338Z,99766.97
2023-05-18T19:19:10.952Z,99769.81
2023-05-18T19:21:41.314Z,99780.16
2023-05-18T19:24:12.336Z,99795.78
2023-05-18T19:26:43.057Z,99792.88
2023-05-18T19:29:13.448Z,99793.97
2023-05-18T19:31:43.923Z,99787.81
2023-05-18T19:34:15.514Z,99793.16
2023-05-18T19:36:45.930Z,99781.28
2023-05-18T19:39:20.493Z,99789.03
2023-05-18T19:41:51.020Z,99784.81
2023-05-18T19:44:21.403Z,99780.13
2023-05-18T19:46:51.944Z,99789.38
2023-05-18T19:49:22.609Z,99782.56
2023-05-18T19:51:52.880Z,99783.84
2023-05-18T19:54:23.445Z,99782.53
2023-05-18T19:56:53.886Z,99769.66
2023-05-18T19:59:24.406Z,99778.25
2023-05-18T20:01:56.575Z,99778.59
2023-05-18T20:04:29.748Z,99780.41
2023-05-18T20:07:00.653Z,99780.72
2023-05-18T20:09:32.367Z,99781.47
2023-05-18T20:12:04.370Z,99781.56
2023-05-18T20:14:35.054Z,99781.91
2023-05-18T20:17:06.146Z,99792.34
2023-05-18T20:19:39.239Z,99788.91
2023-05-18T20:22:12.423Z,99795.25
2023-05-18T20:24:44.767Z,99785.25
2023-05-18T20:27:18.114Z,99791.78
2023-05-18T20:29:49.532Z,99793.03
2023-05-18T20:32:19.952Z,99786.28
2023-05-18T20:34:50.404Z,99789.00
2023-05-18T20:37:21.074Z,99790.34
2023-05-18T20:39:52.694Z,99784.16
2023-05-18T20:42:32.165Z,99790.06
2023-05-18T20:45:02.630Z,99784.16
2023-05-18T20:47:33.499Z,99794.84
2023-05-18T20:50:07.046Z,99793.19
2023-05-18T20:52:37.904Z,99800.44
2023-05-18T20:55:08.879Z,99805.47
2023-05-18T20:57:42.330Z,99804.31
2023-05-18T21:00:15.845Z,99802.75
2023-05-18T21:02:47.221Z,99798.91
2023-05-18T21:05:18.108Z,99803.06
2023-05-18T21:07:48.554Z,99808.22
2023-05-18T21:10:18.942Z,99814.59
2023-05-18T21:12:49.331Z,99812.25
2023-05-18T21:15:19.882Z,99815.66
2023-05-18T21:17:50.341Z,99816.91
2023-05-18T21:20:20.808Z,99819.25
2023-05-18T21:22:51.201Z,99826.81
2023-05-18T21:25:22.357Z,99825.47
2023-05-18T21:27:52.763Z,99831.19
2023-05-18T21:30:23.216Z,99831.56
2023-05-18T21:32:54.411Z,99830.94
2023-05-18T21:35:25.038Z,99834.34
2023-05-18T21:37:55.421Z,99827.66
2023-05-18T21:40:25.825Z,99832.88
2023-05-18T21:42:57.681Z,99832.69
2023-05-18T21:45:28.205Z,99846.50
2023-05-18T21:47:58.888Z,99854.22
2023-05-18T21:50:29.931Z,99846.09
2023-05-18T21:53:00.613Z,99845.03
2023-05-18T21:55:31.828Z,99849.34
2023-05-18T21:58:02.674Z,99858.50
2023-05-18T22:00:33.404Z,99869.56
2023-05-18T22:03:04.061Z,99857.56
2023-05-18T22:05:34.473Z,99864.34
2023-05-18T22:08:05.165Z,99857.97
2023-05-18T22:10:35.831Z,99855.09
2023-05-18T22:13:06.245Z,99855.09
2023-05-18T22:15:38.732Z,99865.59
2023-05-18T22:18:09.396Z,99863.75
2023-05-18T22:20:40.505Z,99867.00
2023-05-18T22:23:10.990Z,99863.97
2023-05-18T22:25:41.656Z,99866.03
2023-05-18T22:28:12.230Z,99865.63
2023-05-18T22:30:42.967Z,99859.63
2023-05-18T22:33:13.473Z,99863.69
2023-05-18T22:35:44.162Z,99870.53
2023-05-18T22:38:14.647Z,99878.56
2023-05-18T22:40:46.569Z,99882.25
2023-05-18T22:43:17.457Z,99877.94
2023-05-18T22:45:47.975Z,99874.84
2023-05-18T22:48:18.521Z,99883.69
2023-05-18T22:51:07.959Z,99889.66
2023-05-18T22:53:38.725Z,99884.66
2023-05-18T22:56:09.562Z,99884.22
2023-05-18T22:58:40.224Z,99896.88
2023-05-18T23:01:10.829Z,99893.72
2023-05-18T23:03:41.238Z,99906.59
2023-05-18T23:06:11.782Z,99916.97
2023-05-18T23:08:42.256Z,99910.16
2023-05-18T23:11:13.049Z,99902.41
2023-05-18T23:13:43.493Z,99905.81
2023-05-18T23:16:14.048Z,99925.81
2023-05-18T23:18:46.896Z,99932.66
2023-05-18T23:21:17.327Z,99926.69
2023-05-18T23:23:47.738Z,99943.47
2023-05-18T23:26:18.265Z,99952.41
2023-05-18T23:28:49.066Z,99944.84
2023-05-18T23:31:19.708Z,99936.28
2023-05-18T23:33:50.661Z,99937.41
2023-05-18T23:36:22.967Z,99935.44
2023-05-18T23:38:53.832Z,99945.19
2023-05-18T23:41:25.269Z,99938.91
2023-05-18T23:43:56.163Z,99927.31
2023-05-18T23:46:26.856Z,99936.16
2023-05-18T23:49:01.606Z,99932.81
2023-05-18T23:51:37.583Z,99935.97
2023-05-18T23:54:08.834Z,99934.94
2023-05-18T23:56:39.915Z,99931.00
2023-05-18T23:59:12.520Z,99943.44
